Time;durP1;ratioP1;P1;durP2;ratioP2;P2;SDS_P1;SDS_P2;PMS_P1;PMS_P2;Temp;Humidity;BMP_temperature;BMP_pressure;BME280_temperature;BME280_humidity;BME280_pressure;Samples;Min_cycle;Max_cycle;Signal;HPM_P1;HPM_P2
2024/02/29 00:01:35;;;;;;;31.17;20.73;;;;;;;;;;5054068;28;20079;-51
2024/02/29 00:04:01;;;;;;;37.30;20.83;;;;;;;;;;5053252;28;20025;-51
2024/02/29 00:06:30;;;;;;;30.35;21.25;;;;;;;;;;5053676;28;20048;-54
2024/02/29 00:08:56;;;;;;;26.15;20.70;;;;;;;;;;5053726;28;20039;-54
2024/02/29 00:11:22;;;;;;;31.17;21.40;;;;;;;;;;5053222;28;20021;-54
2024/02/29 00:13:48;;;;;;;30.30;21.65;;;;;;;;;;5053071;28;20025;-55
2024/02/29 00:16:14;;;;;;;30.65;20.25;;;;;;;;;;5053466;28;20025;-52
2024/02/29 00:18:40;;;;;;;27.65;20.88;;;;;;;;;;5053672;28;20108;-54
2024/02/29 00:21:06;;;;;;;31.98;20.88;;;;;;;;;;5053006;28;20554;-53
2024/02/29 00:23:32;;;;;;;34.08;22.35;;;;;;;;;;5053123;28;20033;-52
2024/02/29 00:25:58;;;;;;;31.55;21.00;;;;;;;;;;5055506;28;20029;-52
2024/02/29 00:28:24;;;;;;;38.90;21.88;;;;;;;;;;5057373;28;20021;-54
2024/02/29 00:30:49;;;;;;;43.53;23.10;;;;;;;;;;5056530;28;20032;-52
2024/02/29 00:33:15;;;;;;;34.83;21.45;;;;;;;;;;5056693;28;20055;-52
2024/02/29 00:35:41;;;;;;;33.20;21.27;;;;;;;;;;5056717;28;20030;-53
2024/02/29 00:38:07;;;;;;;32.15;22.38;;;;;;;;;;5056913;28;20028;-51
2024/02/29 00:40:33;;;;;;;31.75;21.13;;;;;;;;;;5056533;28;20073;-54
2024/02/29 00:42:59;;;;;;;29.33;20.85;;;;;;;;;;5056514;28;20025;-53
2024/02/29 00:45:26;;;;;;;29.05;21.45;;;;;;;;;;5056491;28;20025;-54
2024/02/29 00:47:54;;;;;;;30.10;20.27;;;;;;;;;;5056680;28;20033;-50
2024/02/29 00:50:21;;;;;;;39.55;21.60;;;;;;;;;;5056363;28;20025;-50
2024/02/29 00:52:46;;;;;;;37.97;23.77;;;;;;;;;;5056642;28;20447;-50
2024/02/29 00:55:13;;;;;;;37.17;20.88;;;;;;;;;;5056339;28;20128;-52
2024/02/29 00:57:39;;;;;;;28.05;21.27;;;;;;;;;;5057068;28;20045;-52
2024/02/29 01:00:06;;;;;;;33.25;21.40;;;;;;;;;;5056584;28;20033;-51
2024/02/29 01:02:32;;;;;;;36.53;23.55;;;;;;;;;;5056171;28;20110;-52
2024/02/29 01:04:58;;;;;;;38.78;22.35;;;;;;;;;;5056112;28;20024;-52
2024/02/29 01:07:24;;;;;;;32.10;22.92;;;;;;;;;;5056621;28;20026;-52
2024/02/29 01:09:50;;;;;;;33.53;21.10;;;;;;;;;;5056649;28;20040;-51
2024/02/29 01:12:16;;;;;;;39.22;23.75;;;;;;;;;;5055995;28;20096;-51
2024/02/29 01:14:42;;;;;;;35.75;22.77;;;;;;;;;;5055998;28;20110;-53
2024/02/29 01:17:08;;;;;;;32.50;21.65;;;;;;;;;;5056284;28;20035;-54
2024/02/29 01:19:34;;;;;;;39.25;24.60;;;;;;;;;;5055832;28;20032;-56
2024/02/29 01:22:02;;;;;;;37.97;22.83;;;;;;;;;;5056126;28;20029;-51
2024/02/29 01:24:28;;;;;;;31.45;21.35;;;;;;;;;;5056215;28;20033;-54
2024/02/29 01:26:53;;;;;;;33.78;22.50;;;;;;;;;;5055792;28;20127;-55
2024/02/29 01:29:20;;;;;;;32.35;20.05;;;;;;;;;;5056253;28;20021;-53
2024/02/29 01:31:46;;;;;;;31.88;21.08;;;;;;;;;;5055695;28;20025;-56
2024/02/29 01:34:12;;;;;;;31.17;22.67;;;;;;;;;;5055648;28;20124;-52
2024/02/29 01:36:38;;;;;;;33.65;23.17;;;;;;;;;;5055239;28;20048;-54
2024/02/29 01:39:04;;;;;;;29.67;22.70;;;;;;;;;;5055870;28;20025;-53
2024/02/29 01:41:30;;;;;;;35.60;22.20;;;;;;;;;;5055537;28;20040;-56
2024/02/29 01:43:56;;;;;;;34.10;21.52;;;;;;;;;;5055533;28;20021;-56
2024/02/29 01:46:22;;;;;;;33.38;22.92;;;;;;;;;;5055447;28;20029;-54
2024/02/29 01:48:48;;;;;;;29.17;22.27;;;;;;;;;;5055463;28;20440;-57
2024/02/29 01:51:15;;;;;;;30.98;23.90;;;;;;;;;;5056202;28;20056;-51
2024/02/29 01:53:41;;;;;;;37.25;23.75;;;;;;;;;;5055281;28;20028;-55
2024/02/29 01:56:07;;;;;;;35.60;22.65;;;;;;;;;;5055465;28;20052;-55
2024/02/29 01:58:34;;;;;;;33.22;22.85;;;;;;;;;;5055488;28;20371;-55
2024/02/29 02:01:00;;;;;;;34.22;22.33;;;;;;;;;;5055114;28;20360;-56
2024/02/29 02:03:27;;;;;;;33.72;23.77;;;;;;;;;;5055625;28;20087;-53
2024/02/29 02:05:53;;;;;;;34.70;23.65;;;;;;;;;;5055067;28;20030;-53
2024/02/29 02:08:19;;;;;;;37.38;22.80;;;;;;;;;;5055667;28;20029;-53
2024/02/29 02:10:45;;;;;;;34.08;22.88;;;;;;;;;;5055250;28;20040;-56
2024/02/29 02:13:11;;;;;;;34.40;23.10;;;;;;;;;;5054958;28;20024;-54
2024/02/29 02:15:36;;;;;;;31.30;22.90;;;;;;;;;;5054894;28;20025;-53
2024/02/29 02:18:03;;;;;;;36.45;24.40;;;;;;;;;;5055457;28;20447;-55
2024/02/29 02:20:29;;;;;;;34.20;22.95;;;;;;;;;;5054710;28;20033;-56
2024/02/29 02:22:55;;;;;;;39.42;24.55;;;;;;;;;;5054723;28;20478;-54
2024/02/29 02:25:21;;;;;;;37.78;23.95;;;;;;;;;;5054352;28;20483;-54
2024/02/29 02:27:47;;;;;;;38.50;23.42;;;;;;;;;;5055337;28;20064;-53
2024/02/29 02:30:13;;;;;;;40.13;25.63;;;;;;;;;;5054596;28;20473;-52
2024/02/29 02:32:40;;;;;;;36.88;24.15;;;;;;;;;;5054587;28;20403;-54
2024/02/29 02:35:06;;;;;;;38.42;24.80;;;;;;;;;;5054718;28;20451;-52
2024/02/29 02:37:33;;;;;;;34.17;22.02;;;;;;;;;;5054467;28;20024;-56
2024/02/29 02:39:59;;;;;;;36.08;24.88;;;;;;;;;;5054680;28;20036;-55
2024/02/29 02:42:25;;;;;;;36.78;24.73;;;;;;;;;;5054329;28;20463;-55
2024/02/29 02:44:51;;;;;;;37.58;24.20;;;;;;;;;;5054357;28;20105;-55
2024/02/29 02:47:17;;;;;;;41.00;24.30;;;;;;;;;;5054855;28;20044;-55
2024/02/29 02:49:43;;;;;;;35.85;24.10;;;;;;;;;;5054511;28;20032;-56
2024/02/29 02:52:09;;;;;;;37.95;24.05;;;;;;;;;;5054493;28;20028;-55
2024/02/29 02:54:35;;;;;;;35.75;23.48;;;;;;;;;;5054163;28;20025;-55
2024/02/29 02:57:01;;;;;;;42.58;25.80;;;;;;;;;;5054511;28;20060;-55
2024/02/29 02:59:27;;;;;;;40.67;26.73;;;;;;;;;;5053955;28;20025;-55
2024/02/29 03:01:53;;;;;;;42.17;24.15;;;;;;;;;;5054570;28;20040;-54
2024/02/29 03:04:19;;;;;;;39.65;26.23;;;;;;;;;;5054289;28;20025;-53
2024/02/29 03:06:45;;;;;;;41.08;26.50;;;;;;;;;;5053920;28;20025;-55
2024/02/29 03:09:11;;;;;;;39.08;25.55;;;;;;;;;;5054319;28;20021;-55
2024/02/29 03:11:38;;;;;;;41.65;24.50;;;;;;;;;;5053644;28;20021;-56
2024/02/29 03:14:04;;;;;;;37.05;23.67;;;;;;;;;;5053876;28;20047;-54
2024/02/29 03:16:36;;;;;;;35.85;22.83;;;;;;;;;;5054381;28;20037;-54
2024/02/29 03:19:04;;;;;;;34.13;23.00;;;;;;;;;;5054185;28;20032;-55
2024/02/29 03:21:30;;;;;;;38.50;22.50;;;;;;;;;;5053698;28;20149;-56
2024/02/29 03:23:56;;;;;;;39.00;23.10;;;;;;;;;;5053751;28;20487;-55
2024/02/29 03:26:22;;;;;;;36.13;24.85;;;;;;;;;;5054032;28;20021;-53
2024/02/29 03:28:48;;;;;;;35.28;23.30;;;;;;;;;;5054351;28;20444;-54
2024/02/29 03:31:14;;;;;;;36.97;24.88;;;;;;;;;;5053427;28;20108;-52
2024/02/29 03:33:40;;;;;;;34.72;23.55;;;;;;;;;;5053292;28;20025;-55
2024/02/29 03:36:06;;;;;;;31.80;22.25;;;;;;;;;;5053675;28;20033;-53
2024/02/29 03:38:32;;;;;;;36.40;22.42;;;;;;;;;;5053993;28;20021;-56
2024/02/29 03:40:58;;;;;;;33.05;23.60;;;;;;;;;;5053206;28;20075;-55
2024/02/29 03:43:25;;;;;;;36.05;24.17;;;;;;;;;;5054307;28;20029;-54
2024/02/29 03:45:51;;;;;;;35.90;24.58;;;;;;;;;;5054022;28;20414;-54
2024/02/29 03:48:17;;;;;;;41.58;26.65;;;;;;;;;;5053201;28;20021;-53
2024/02/29 03:50:43;;;;;;;37.97;24.13;;;;;;;;;;5053993;28;20025;-52
2024/02/29 03:53:09;;;;;;;47.97;26.65;;;;;;;;;;5053749;28;20025;-55
2024/02/29 03:55:35;;;;;;;39.00;24.33;;;;;;;;;;5053968;28;20032;-52
2024/02/29 03:58:01;;;;;;;42.42;25.58;;;;;;;;;;5053596;28;20045;-50
2024/02/29 04:00:27;;;;;;;36.08;24.17;;;;;;;;;;5054849;28;20036;-51
2024/02/29 04:02:52;;;;;;;32.45;24.38;;;;;;;;;;5058256;28;20032;-52
2024/02/29 04:05:23;;;;;;;41.55;27.55;;;;;;;;;;5057352;28;20025;-54
2024/02/29 04:07:50;;;;;;;38.55;26.23;;;;;;;;;;5057905;28;20155;-55
2024/02/29 04:10:16;;;;;;;35.17;23.50;;;;;;;;;;5057233;28;20036;-55
2024/02/29 04:12:42;;;;;;;45.65;25.35;;;;;;;;;;5057239;28;20025;-53
2024/02/29 04:15:08;;;;;;;39.15;26.80;;;;;;;;;;5057733;28;20036;-56
2024/02/29 04:17:34;;;;;;;40.45;24.40;;;;;;;;;;5057128;28;20107;-51
2024/02/29 04:20:00;;;;;;;39.80;26.63;;;;;;;;;;5057570;28;20119;-53
2024/02/29 04:22:26;;;;;;;42.15;24.85;;;;;;;;;;5057529;28;20043;-55
2024/02/29 04:24:52;;;;;;;43.58;23.02;;;;;;;;;;5057523;28;20025;-52
2024/02/29 04:27:18;;;;;;;28.08;20.73;;;;;;;;;;5056831;28;20033;-53
2024/02/29 04:29:46;;;;;;;26.02;21.00;;;;;;;;;;5057512;28;20442;-56
2024/02/29 04:32:11;;;;;;;31.70;19.63;;;;;;;;;;5056548;28;20021;-51
2024/02/29 04:34:37;;;;;;;27.30;20.35;;;;;;;;;;5057127;28;20036;-56
2024/02/29 04:37:03;;;;;;;27.50;21.73;;;;;;;;;;5056983;28;20032;-52
2024/02/29 04:39:29;;;;;;;32.00;21.20;;;;;;;;;;5057261;28;20074;-55
2024/02/29 04:41:55;;;;;;;30.02;20.88;;;;;;;;;;5056710;28;20096;-51
2024/02/29 04:44:21;;;;;;;37.33;22.98;;;;;;;;;;5056612;28;20032;-54
2024/02/29 04:46:47;;;;;;;35.30;20.00;;;;;;;;;;5056622;28;20029;-55
2024/02/29 04:49:13;;;;;;;27.13;19.83;;;;;;;;;;5057163;28;20035;-55
2024/02/29 04:51:39;;;;;;;28.55;18.80;;;;;;;;;;5056245;28;20059;-56
2024/02/29 04:54:05;;;;;;;37.92;24.25;;;;;;;;;;5056434;28;20051;-55
2024/02/29 04:56:31;;;;;;;32.20;21.95;;;;;;;;;;5057204;28;20049;-51
2024/02/29 04:58:57;;;;;;;30.92;22.02;;;;;;;;;;5056694;28;20359;-50
2024/02/29 05:01:23;;;;;;;36.25;24.63;;;;;;;;;;5056766;28;20025;-54
2024/02/29 05:03:49;;;;;;;41.15;25.13;;;;;;;;;;5056862;28;20036;-56
2024/02/29 05:06:16;;;;;;;35.97;22.77;;;;;;;;;;5056548;28;20025;-55
2024/02/29 05:08:42;;;;;;;42.35;26.77;;;;;;;;;;5057108;28;20025;-56
2024/02/29 05:11:09;;;;;;;31.48;24.65;;;;;;;;;;5055247;28;20033;-52
2024/02/29 05:13:35;;;;;;;38.57;24.90;;;;;;;;;;5055659;28;20032;-56
2024/02/29 05:16:04;;;;;;;31.83;22.07;;;;;;;;;;5056485;28;20028;-55
2024/02/29 05:18:30;;;;;;;30.77;23.13;;;;;;;;;;5056348;28;20029;-55
2024/02/29 05:20:56;;;;;;;35.30;22.73;;;;;;;;;;5056500;28;20116;-56
2024/02/29 05:23:22;;;;;;;32.17;22.83;;;;;;;;;;5055585;28;20138;-54
2024/02/29 05:25:48;;;;;;;32.90;24.15;;;;;;;;;;5055844;28;20115;-56
2024/02/29 05:28:15;;;;;;;39.13;24.13;;;;;;;;;;5056600;28;20056;-57
2024/02/29 05:30:41;;;;;;;36.17;21.95;;;;;;;;;;5055704;28;20041;-55
2024/02/29 05:33:07;;;;;;;38.85;23.30;;;;;;;;;;5055577;28;20525;-55
2024/02/29 05:35:33;;;;;;;39.60;25.65;;;;;;;;;;5055681;28;20029;-57
2024/02/29 05:37:59;;;;;;;45.85;25.33;;;;;;;;;;5056335;28;20029;-56
2024/02/29 05:40:28;;;;;;;35.70;23.27;;;;;;;;;;5055528;28;20055;-55
2024/02/29 05:42:54;;;;;;;33.17;22.58;;;;;;;;;;5055572;28;20021;-54
2024/02/29 05:45:20;;;;;;;38.63;23.33;;;;;;;;;;5055650;28;20028;-55
2024/02/29 05:47:47;;;;;;;36.30;25.17;;;;;;;;;;5055497;28;20573;-55
2024/02/29 05:50:13;;;;;;;33.67;23.17;;;;;;;;;;5055543;28;20069;-51
2024/02/29 05:52:40;;;;;;;33.80;23.08;;;;;;;;;;5054980;28;20396;-54
2024/02/29 05:55:06;;;;;;;38.22;23.25;;;;;;;;;;5055839;28;20033;-54
2024/02/29 05:57:32;;;;;;;38.75;25.33;;;;;;;;;;5056035;28;20041;-54
2024/02/29 06:00:00;;;;;;;39.35;24.88;;;;;;;;;;5055569;28;20029;-53
2024/02/29 06:02:27;;;;;;;38.10;25.42;;;;;;;;;;5055583;28;20360;-54
2024/02/29 06:04:53;;;;;;;29.07;22.87;;;;;;;;;;5055584;28;20068;-56
2024/02/29 06:07:19;;;;;;;36.63;22.27;;;;;;;;;;5054894;28;20025;-53
2024/02/29 06:09:45;;;;;;;32.03;22.90;;;;;;;;;;5054621;28;20036;-57
2024/02/29 06:12:11;;;;;;;33.55;24.80;;;;;;;;;;5055024;28;20103;-54
2024/02/29 06:14:37;;;;;;;35.05;24.98;;;;;;;;;;5055387;28;20032;-54
2024/02/29 06:17:03;;;;;;;29.88;21.98;;;;;;;;;;5054948;28;20050;-56
2024/02/29 06:19:29;;;;;;;34.10;22.58;;;;;;;;;;5054814;28;20057;-55
2024/02/29 06:21:54;;;;;;;31.60;22.67;;;;;;;;;;5055362;28;20021;-55
2024/02/29 06:24:20;;;;;;;38.30;23.00;;;;;;;;;;5054455;28;20474;-53
2024/02/29 06:26:47;;;;;;;32.80;24.03;;;;;;;;;;5054306;28;20029;-53
2024/02/29 06:29:13;;;;;;;33.28;23.33;;;;;;;;;;5054801;28;20083;-57
2024/02/29 06:31:40;;;;;;;27.77;20.97;;;;;;;;;;5054669;28;20090;-54
2024/02/29 06:34:05;;;;;;;30.92;24.50;;;;;;;;;;5054333;28;20484;-53
2024/02/29 06:36:32;;;;;;;38.05;26.58;;;;;;;;;;5054825;28;20068;-54
2024/02/29 06:38:58;;;;;;;28.37;22.93;;;;;;;;;;5054854;28;20021;-53
2024/02/29 06:41:24;;;;;;;36.25;25.63;;;;;;;;;;5054210;28;20119;-53
2024/02/29 06:43:50;;;;;;;38.28;24.13;;;;;;;;;;5053809;28;20040;-54
2024/02/29 06:46:16;;;;;;;37.80;25.38;;;;;;;;;;5054105;28;20043;-56
2024/02/29 06:48:42;;;;;;;37.17;26.88;;;;;;;;;;5054232;28;20021;-54
2024/02/29 06:51:08;;;;;;;35.03;25.77;;;;;;;;;;5053895;28;20078;-57
2024/02/29 06:53:34;;;;;;;35.33;25.30;;;;;;;;;;5054579;28;20025;-54
2024/02/29 06:56:00;;;;;;;37.97;26.15;;;;;;;;;;5054023;28;20053;-58
2024/02/29 06:58:26;;;;;;;36.03;26.50;;;;;;;;;;5054673;28;20524;-58
2024/02/29 07:00:52;;;;;;;42.45;27.20;;;;;;;;;;5054249;28;20443;-58
2024/02/29 07:03:20;;;;;;;40.30;27.15;;;;;;;;;;5053990;28;20135;-58
2024/02/29 07:05:45;;;;;;;44.17;28.75;;;;;;;;;;5053735;28;20095;-57
2024/02/29 07:08:13;;;;;;;39.40;26.00;;;;;;;;;;5053757;28;20052;-57
2024/02/29 07:10:40;;;;;;;38.72;26.63;;;;;;;;;;5054203;28;20052;-57
2024/02/29 07:13:06;;;;;;;34.63;25.30;;;;;;;;;;5053572;28;20040;-57
2024/02/29 07:15:33;;;;;;;40.88;26.52;;;;;;;;;;5053462;28;20107;-57
2024/02/29 07:17:59;;;;;;;41.83;25.65;;;;;;;;;;5054115;28;20102;-53
2024/02/29 07:20:25;;;;;;;37.03;24.55;;;;;;;;;;5053303;28;20198;-57
2024/02/29 07:22:51;;;;;;;46.67;27.15;;;;;;;;;;5053466;28;20025;-57
2024/02/29 07:25:17;;;;;;;38.92;25.25;;;;;;;;;;5053825;28;20470;-57
2024/02/29 07:27:45;;;;;;;33.08;24.83;;;;;;;;;;5053633;28;20025;-57
2024/02/29 07:30:11;;;;;;;32.55;25.33;;;;;;;;;;5053839;28;20451;-57
2024/02/29 07:32:37;;;;;;;37.47;24.45;;;;;;;;;;5053590;28;20032;-55
2024/02/29 07:35:03;;;;;;;33.40;24.23;;;;;;;;;;5052693;28;20033;-54
2024/02/29 07:37:29;;;;;;;29.73;22.00;;;;;;;;;;5053288;28;20356;-57
2024/02/29 07:39:55;;;;;;;37.85;22.40;;;;;;;;;;5053957;28;20039;-55
2024/02/29 07:42:21;;;;;;;30.40;22.33;;;;;;;;;;5053335;28;20106;-53
2024/02/29 07:44:47;;;;;;;32.65;23.40;;;;;;;;;;5053800;28;20032;-55
2024/02/29 07:47:13;;;;;;;31.73;21.13;;;;;;;;;;5052960;28;20029;-54
2024/02/29 07:49:39;;;;;;;39.85;24.17;;;;;;;;;;5053368;28;20120;-54
2024/02/29 07:52:05;;;;;;;33.22;23.30;;;;;;;;;;5053796;28;20064;-56
2024/02/29 07:54:31;;;;;;;30.35;22.70;;;;;;;;;;5053030;28;20466;-54
2024/02/29 07:56:57;;;;;;;33.50;23.23;;;;;;;;;;5053596;28;20059;-56
2024/02/29 07:59:25;;;;;;;36.58;23.58;;;;;;;;;;5053515;28;20029;-57
2024/02/29 08:01:51;;;;;;;36.13;24.25;;;;;;;;;;5053293;28;20033;-54
2024/02/29 08:04:17;;;;;;;36.03;22.95;;;;;;;;;;5053577;28;20155;-55
2024/02/29 08:06:43;;;;;;;38.28;24.52;;;;;;;;;;5053512;28;20032;-56
2024/02/29 08:09:09;;;;;;;37.90;26.10;;;;;;;;;;5053820;28;20465;-55
2024/02/29 08:11:35;;;;;;;30.95;21.90;;;;;;;;;;5053800;28;20032;-54
2024/02/29 08:14:01;;;;;;;38.00;25.85;;;;;;;;;;5053806;28;20328;-55
2024/02/29 08:16:26;;;;;;;31.48;23.30;;;;;;;;;;5053125;28;20455;-56
2024/02/29 08:18:52;;;;;;;30.90;22.55;;;;;;;;;;5053082;28;20021;-55
2024/02/29 08:21:18;;;;;;;35.00;24.05;;;;;;;;;;5053103;28;20035;-56
2024/02/29 08:23:46;;;;;;;35.03;23.48;;;;;;;;;;5053510;28;20108;-56
2024/02/29 08:26:12;;;;;;;40.95;27.75;;;;;;;;;;5052862;28;20032;-56
2024/02/29 08:28:37;;;;;;;37.50;23.70;;;;;;;;;;5052988;28;20021;-56
2024/02/29 08:31:05;;;;;;;36.28;25.40;;;;;;;;;;5053204;28;20056;-56
2024/02/29 08:33:31;;;;;;;37.08;25.65;;;;;;;;;;5052798;28;20116;-54
2024/02/29 08:35:57;;;;;;;32.72;21.52;;;;;;;;;;5052615;28;20025;-52
2024/02/29 08:38:23;;;;;;;37.30;22.40;;;;;;;;;;5053287;28;20336;-55
2024/02/29 08:40:49;;;;;;;39.65;23.65;;;;;;;;;;5053175;28;20040;-54
2024/02/29 08:43:15;;;;;;;38.50;24.20;;;;;;;;;;5052860;28;20025;-51
2024/02/29 08:45:41;;;;;;;32.95;23.95;;;;;;;;;;5052805;28;20025;-54
2024/02/29 08:48:07;;;;;;;33.58;23.80;;;;;;;;;;5056418;28;20032;-56
2024/02/29 08:50:33;;;;;;;30.95;22.02;;;;;;;;;;5056074;28;20029;-56
2024/02/29 08:52:59;;;;;;;34.90;22.60;;;;;;;;;;5056385;28;20104;-54
2024/02/29 08:55:25;;;;;;;26.15;19.42;;;;;;;;;;5056561;28;20033;-55
2024/02/29 08:57:51;;;;;;;30.42;20.52;;;;;;;;;;5056211;28;20579;-53
2024/02/29 09:00:17;;;;;;;28.77;21.55;;;;;;;;;;5056688;28;20096;-55
2024/02/29 09:02:44;;;;;;;28.70;19.58;;;;;;;;;;5055960;28;20060;-54
2024/02/29 09:05:10;;;;;;;34.55;21.63;;;;;;;;;;5055929;28;20061;-55
2024/02/29 09:07:36;;;;;;;29.05;19.58;;;;;;;;;;5056284;28;20386;-56
2024/02/29 09:10:02;;;;;;;34.08;19.15;;;;;;;;;;5056649;28;20043;-55
2024/02/29 09:12:28;;;;;;;27.90;19.70;;;;;;;;;;5056526;28;20359;-53
2024/02/29 09:14:54;;;;;;;32.30;21.13;;;;;;;;;;5055655;28;20029;-54
2024/02/29 09:17:21;;;;;;;24.70;17.20;;;;;;;;;;5056205;28;20028;-53
2024/02/29 09:19:47;;;;;;;33.85;20.92;;;;;;;;;;5056128;28;20033;-56
2024/02/29 09:22:13;;;;;;;24.00;19.73;;;;;;;;;;5055586;28;20451;-55
2024/02/29 09:24:39;;;;;;;27.13;19.27;;;;;;;;;;5056348;28;20052;-55
2024/02/29 09:27:05;;;;;;;34.03;19.40;;;;;;;;;;5055262;28;20052;-56
2024/02/29 09:29:32;;;;;;;25.70;18.25;;;;;;;;;;5056310;28;20021;-54
2024/02/29 09:31:58;;;;;;;32.38;20.70;;;;;;;;;;5055937;28;20402;-55
2024/02/29 09:34:24;;;;;;;26.02;18.35;;;;;;;;;;5055927;28;20033;-54
2024/02/29 09:36:50;;;;;;;27.00;19.45;;;;;;;;;;5055792;28;20040;-56
2024/02/29 09:39:16;;;;;;;23.15;19.38;;;;;;;;;;5055541;28;20033;-54
2024/02/29 09:41:42;;;;;;;23.85;18.25;;;;;;;;;;5055331;28;20095;-56
2024/02/29 09:44:08;;;;;;;25.45;18.17;;;;;;;;;;5055396;28;20036;-54
2024/02/29 09:46:34;;;;;;;26.48;20.67;;;;;;;;;;5055538;28;20413;-55
2024/02/29 09:49:00;;;;;;;27.20;20.10;;;;;;;;;;5056286;28;20025;-55
2024/02/29 09:51:27;;;;;;;28.05;20.52;;;;;;;;;;5055885;28;20378;-56
2024/02/29 09:53:54;;;;;;;31.10;19.85;;;;;;;;;;5055595;28;20033;-53
2024/02/29 09:56:25;;;;;;;24.65;18.40;;;;;;;;;;5055768;28;20056;-56
2024/02/29 09:58:51;;;;;;;23.88;19.92;;;;;;;;;;5054463;28;20033;-56
2024/02/29 10:01:17;;;;;;;23.60;18.80;;;;;;;;;;5054778;28;20029;-54
2024/02/29 10:03:43;;;;;;;25.05;19.67;;;;;;;;;;5055006;28;20455;-55
2024/02/29 10:06:11;;;;;;;26.33;18.73;;;;;;;;;;5054632;28;20033;-54
2024/02/29 10:08:38;;;;;;;26.02;19.58;;;;;;;;;;5054964;28;20037;-55
2024/02/29 10:11:04;;;;;;;25.38;18.42;;;;;;;;;;5055006;28;20069;-53
2024/02/29 10:13:37;;;;;;;27.15;20.33;;;;;;;;;;5055174;28;20033;-53
2024/02/29 10:16:03;;;;;;;21.15;18.35;;;;;;;;;;5055111;28;20064;-55
2024/02/29 10:18:33;;;;;;;22.25;18.92;;;;;;;;;;5055413;28;20033;-52
2024/02/29 10:20:59;;;;;;;26.83;19.53;;;;;;;;;;5054677;28;20040;-54
2024/02/29 10:23:28;;;;;;;27.90;18.30;;;;;;;;;;5054422;28;20029;-55
2024/02/29 10:25:54;;;;;;;22.52;17.15;;;;;;;;;;5054764;28;20025;-54
2024/02/29 10:28:20;;;;;;;22.27;16.58;;;;;;;;;;5054984;28;20033;-56
2024/02/29 10:30:54;;;;;;;20.13;16.73;;;;;;;;;;5055230;28;20443;-55
2024/02/29 10:33:20;;;;;;;24.75;17.75;;;;;;;;;;5055189;28;20067;-55
2024/02/29 10:35:47;;;;;;;19.60;16.98;;;;;;;;;;5054609;28;20459;-52
2024/02/29 10:38:14;;;;;;;26.45;18.55;;;;;;;;;;5055072;28;20156;-54
2024/02/29 10:40:40;;;;;;;22.05;17.77;;;;;;;;;;5054377;28;20029;-54
2024/02/29 10:43:11;;;;;;;22.08;17.85;;;;;;;;;;5054898;28;20120;-54
2024/02/29 10:45:45;;;;;;;20.63;16.98;;;;;;;;;;5054908;28;20021;-55
2024/02/29 10:48:17;;;;;;;19.88;16.35;;;;;;;;;;5054629;28;20029;-55
2024/02/29 10:50:46;;;;;;;20.75;16.77;;;;;;;;;;5054230;28;20179;-54
2024/02/29 10:53:28;;;;;;;23.38;17.17;;;;;;;;;;5054546;28;20020;-54
2024/02/29 10:55:57;;;;;;;21.77;17.65;;;;;;;;;;5054080;28;20371;-54
2024/02/29 10:58:29;;;;;;;23.98;18.83;;;;;;;;;;5054691;28;20025;-55
2024/02/29 11:00:55;;;;;;;23.42;16.65;;;;;;;;;;5054617;28;20037;-55
2024/02/29 11:03:21;;;;;;;19.65;15.38;;;;;;;;;;5053639;28;20194;-54
2024/02/29 11:05:47;;;;;;;16.23;14.18;;;;;;;;;;5054032;28;20107;-53
2024/02/29 11:08:14;;;;;;;17.73;15.13;;;;;;;;;;5054610;28;20112;-52
2024/02/29 11:10:40;;;;;;;19.92;14.68;;;;;;;;;;5053824;28;20029;-56
2024/02/29 11:13:06;;;;;;;17.23;13.07;;;;;;;;;;5054299;28;20057;-52
2024/02/29 11:15:32;;;;;;;16.13;12.95;;;;;;;;;;5053881;28;20032;-55
2024/02/29 11:17:59;;;;;;;15.27;12.02;;;;;;;;;;5053748;28;20375;-57
2024/02/29 11:20:25;;;;;;;15.77;12.88;;;;;;;;;;5054296;28;20037;-55
2024/02/29 11:23:02;;;;;;;16.17;12.15;;;;;;;;;;5053794;28;20028;-56
2024/02/29 11:25:30;;;;;;;14.25;12.02;;;;;;;;;;5053127;28;20029;-56
2024/02/29 11:27:55;;;;;;;16.80;12.48;;;;;;;;;;5053659;28;20025;-56
2024/02/29 11:30:23;;;;;;;14.10;12.57;;;;;;;;;;5053620;28;20029;-56
2024/02/29 11:32:50;;;;;;;16.95;12.32;;;;;;;;;;5053756;28;20056;-52
2024/02/29 11:35:16;;;;;;;15.43;12.43;;;;;;;;;;5054198;28;20443;-55
2024/02/29 11:37:46;;;;;;;17.55;14.38;;;;;;;;;;5053637;28;20048;-57
2024/02/29 11:40:13;;;;;;;15.60;13.82;;;;;;;;;;5053631;28;20033;-56
2024/02/29 11:42:39;;;;;;;17.92;13.65;;;;;;;;;;5052508;28;20024;-54
2024/02/29 11:45:07;;;;;;;15.63;12.18;;;;;;;;;;5053341;28;20171;-55
2024/02/29 11:47:33;;;;;;;19.25;14.20;;;;;;;;;;5053475;28;20021;-54
2024/02/29 11:50:00;;;;;;;18.63;13.40;;;;;;;;;;5054087;28;20086;-57
2024/02/29 11:52:26;;;;;;;19.42;14.05;;;;;;;;;;5054172;28;20032;-56
2024/02/29 11:54:52;;;;;;;14.07;12.10;;;;;;;;;;5053506;28;20025;-53
2024/02/29 11:57:18;;;;;;;18.52;13.15;;;;;;;;;;5053153;28;20102;-56
2024/02/29 11:59:44;;;;;;;18.50;13.77;;;;;;;;;;5053281;28;20052;-55
2024/02/29 12:02:10;;;;;;;16.90;12.98;;;;;;;;;;5053705;28;20036;-56
2024/02/29 12:04:36;;;;;;;16.95;12.65;;;;;;;;;;5053932;28;20025;-57
2024/02/29 12:07:02;;;;;;;19.02;13.52;;;;;;;;;;5053885;28;20056;-53
2024/02/29 12:09:32;;;;;;;16.23;12.63;;;;;;;;;;5054100;28;20428;-57
2024/02/29 12:11:59;;;;;;;14.70;12.00;;;;;;;;;;5053283;28;20518;-56
2024/02/29 12:14:25;;;;;;;15.10;11.05;;;;;;;;;;5053208;28;20025;-56
2024/02/29 12:16:51;;;;;;;14.30;10.85;;;;;;;;;;5053752;28;20118;-57
2024/02/29 12:19:17;;;;;;;14.40;11.38;;;;;;;;;;5053722;28;20021;-54
2024/02/29 12:21:43;;;;;;;14.13;11.50;;;;;;;;;;5054817;28;20051;-57
2024/02/29 12:24:10;;;;;;;15.40;11.25;;;;;;;;;;5057562;28;20029;-54
2024/02/29 12:26:38;;;;;;;12.45;10.13;;;;;;;;;;5056829;28;20025;-52
2024/02/29 12:29:06;;;;;;;13.73;10.82;;;;;;;;;;5056967;28;20025;-57
2024/02/29 12:31:32;;;;;;;14.10;8.82;;;;;;;;;;5056787;28;20036;-56
2024/02/29 12:33:59;;;;;;;10.18;7.97;;;;;;;;;;5057053;28;20455;-57
2024/02/29 12:36:27;;;;;;;11.02;8.95;;;;;;;;;;5056772;28;20471;-55
2024/02/29 12:38:53;;;;;;;12.38;9.95;;;;;;;;;;5057130;28;20028;-57
2024/02/29 12:41:19;;;;;;;12.30;9.73;;;;;;;;;;5056541;28;20056;-57
2024/02/29 12:43:48;;;;;;;12.75;10.00;;;;;;;;;;5056533;28;20524;-57
2024/02/29 12:46:14;;;;;;;11.45;9.05;;;;;;;;;;5057149;28;20470;-57
2024/02/29 12:48:41;;;;;;;10.90;8.98;;;;;;;;;;5056873;28;20506;-57
2024/02/29 12:51:07;;;;;;;9.55;8.27;;;;;;;;;;5056489;28;20048;-57
2024/02/29 12:53:33;;;;;;;11.60;8.55;;;;;;;;;;5056457;28;20028;-57
2024/02/29 12:55:59;;;;;;;11.93;8.30;;;;;;;;;;5055994;28;20475;-56
2024/02/29 12:58:25;;;;;;;11.90;8.23;;;;;;;;;;5056950;28;20075;-57
2024/02/29 13:00:51;;;;;;;9.10;8.05;;;;;;;;;;5056379;28;20116;-56
2024/02/29 13:03:17;;;;;;;9.63;7.85;;;;;;;;;;5056332;28;20033;-56
2024/02/29 13:05:44;;;;;;;10.93;8.68;;;;;;;;;;5056411;28;20371;-57
2024/02/29 13:08:11;;;;;;;11.68;8.02;;;;;;;;;;5056821;28;20025;-57
2024/02/29 13:10:58;;;;;;;11.13;8.43;;;;;;;;;;5056240;28;20391;-57
2024/02/29 13:13:24;;;;;;;13.32;8.25;;;;;;;;;;5056937;28;20021;-56
2024/02/29 13:15:50;;;;;;;10.70;7.90;;;;;;;;;;5056198;28;20370;-57
2024/02/29 13:18:16;;;;;;;7.97;6.95;;;;;;;;;;5056387;28;20040;-57
2024/02/29 13:20:41;;;;;;;10.63;8.00;;;;;;;;;;5055742;28;20098;-57
2024/02/29 13:23:07;;;;;;;10.95;7.93;;;;;;;;;;5056189;28;20036;-57
2024/02/29 13:25:34;;;;;;;9.73;7.78;;;;;;;;;;5055982;28;20067;-57
2024/02/29 13:28:00;;;;;;;9.00;7.47;;;;;;;;;;5056576;28;20025;-57
2024/02/29 13:30:26;;;;;;;9.93;8.45;;;;;;;;;;5055903;28;20047;-56
2024/02/29 13:32:52;;;;;;;13.10;8.65;;;;;;;;;;5054618;28;20025;-58
2024/02/29 13:35:18;;;;;;;10.13;7.68;;;;;;;;;;5056556;28;20047;-55
2024/02/29 13:37:46;;;;;;;10.07;8.18;;;;;;;;;;5055776;28;20032;-58
2024/02/29 13:40:12;;;;;;;10.52;7.93;;;;;;;;;;5055660;28;20033;-57
2024/02/29 13:42:38;;;;;;;11.27;8.88;;;;;;;;;;5056002;28;20146;-57
2024/02/29 13:45:05;;;;;;;10.73;9.63;;;;;;;;;;5055812;28;20108;-57
2024/02/29 13:47:31;;;;;;;10.68;8.40;;;;;;;;;;5055484;28;20446;-57
2024/02/29 13:49:57;;;;;;;12.18;8.15;;;;;;;;;;5056032;28;20143;-57
2024/02/29 13:52:24;;;;;;;12.70;9.00;;;;;;;;;;5055461;28;20037;-58
2024/02/29 13:54:51;;;;;;;11.52;8.48;;;;;;;;;;5055048;28;20052;-55
2024/02/29 13:57:17;;;;;;;9.85;8.70;;;;;;;;;;5055505;28;20060;-57
2024/02/29 13:59:43;;;;;;;11.60;10.15;;;;;;;;;;5054976;28;20025;-57
2024/02/29 14:02:10;;;;;;;13.50;10.20;;;;;;;;;;5055223;28;20025;-58
2024/02/29 14:04:36;;;;;;;14.05;10.80;;;;;;;;;;5054880;28;20021;-57
2024/02/29 14:07:03;;;;;;;13.23;9.88;;;;;;;;;;5055672;28;20017;-56
2024/02/29 14:09:30;;;;;;;10.23;7.60;;;;;;;;;;5055733;28;20033;-58
2024/02/29 14:11:56;;;;;;;13.27;10.05;;;;;;;;;;5055808;28;20409;-57
2024/02/29 14:14:22;;;;;;;11.15;9.15;;;;;;;;;;5055480;28;20017;-56